createdAt,value
2019-04-21T00:01:44.056Z,10.60
2019-04-21T00:04:19.885Z,10.40
2019-04-21T00:06:55.346Z,10.50
2019-04-21T00:09:34.544Z,10.30
2019-04-21T00:11:57.277Z,10.20
2019-04-21T00:14:22.707Z,10.20
2019-04-21T00:16:48.411Z,10.00
2019-04-21T00:19:35.699Z,9.90
2019-04-21T00:22:16.136Z,10.00
2019-04-21T00:24:50.727Z,9.90
2019-04-21T00:27:21.413Z,9.80
2019-04-21T00:29:51.893Z,9.80
2019-04-21T00:32:21.907Z,9.80
2019-04-21T00:34:36.423Z,9.60
2019-04-21T00:37:16.871Z,9.60
2019-04-21T00:40:01.924Z,9.60
2019-04-21T00:42:27.415Z,9.50
2019-04-21T00:44:56.631Z,9.50
2019-04-21T00:47:31.640Z,9.60
2019-04-21T00:50:02.057Z,9.50
2019-04-21T00:52:58.033Z,9.40
2019-04-21T00:55:45.548Z,9.40
2019-04-21T00:58:03.512Z,9.50
2019-04-21T01:00:27.340Z,9.60
2019-04-21T01:03:00.928Z,9.60
2019-04-21T01:05:42.307Z,9.60
2019-04-21T01:08:03.074Z,9.60
2019-04-21T01:10:24.263Z,9.60
2019-04-21T01:13:09.371Z,9.70
2019-04-21T01:15:37.102Z,9.80
2019-04-21T01:18:04.811Z,9.70
2019-04-21T01:20:17.703Z,9.60
2019-04-21T01:22:45.541Z,9.50
2019-04-21T01:25:22.611Z,9.40
2019-04-21T01:27:59.100Z,9.40
2019-04-21T01:30:34.707Z,9.30
2019-04-21T01:33:08.196Z,9.20
2019-04-21T01:35:40.259Z,9.20
2019-04-21T01:38:19.841Z,9.20
2019-04-21T01:40:41.039Z,9.10
2019-04-21T01:43:10.259Z,9.00
2019-04-21T01:45:41.644Z,8.90
2019-04-21T01:48:06.535Z,8.90
2019-04-21T01:50:43.847Z,8.80
2019-04-21T01:53:24.352Z,8.60
2019-04-21T01:56:14.583Z,8.70
2019-04-21T01:58:40.252Z,8.70
2019-04-21T02:01:21.196Z,8.50
2019-04-21T02:03:52.915Z,8.40
2019-04-21T02:06:25.321Z,8.40
2019-04-21T02:08:49.435Z,8.50
2019-04-21T02:11:31.303Z,8.50
2019-04-21T02:14:05.389Z,8.50
2019-04-21T02:16:28.286Z,8.40
2019-04-21T02:18:54.473Z,8.30
2019-04-21T02:21:22.147Z,8.20
2019-04-21T02:24:05.380Z,8.10
2019-04-21T02:26:37.537Z,8.20
2019-04-21T02:29:08.632Z,8.20
2019-04-21T02:31:45.249Z,8.20
2019-04-21T02:34:25.292Z,8.20
2019-04-21T02:36:53.299Z,8.20
2019-04-21T02:39:21.264Z,8.00
2019-04-21T02:41:51.757Z,8.00
2019-04-21T02:44:24.225Z,8.00
2019-04-21T02:46:42.171Z,8.10
2019-04-21T02:49:22.183Z,8.00
2019-04-21T02:54:42.020Z,7.80
2019-04-21T02:56:54.425Z,7.70
2019-04-21T03:02:17.187Z,7.60
2019-04-21T03:05:01.835Z,7.60
2019-04-21T03:07:34.685Z,7.50
2019-04-21T03:09:49.504Z,7.60
2019-04-21T03:12:24.533Z,7.60
2019-04-21T03:15:12.141Z,7.50
2019-04-21T03:22:24.985Z,7.40
2019-04-21T03:29:59.254Z,7.40
2019-04-21T03:37:42.487Z,7.50
2019-04-21T03:40:15.027Z,7.40
2019-04-21T03:45:03.770Z,7.60
2019-04-21T03:52:46.333Z,7.60
2019-04-21T03:55:50.381Z,7.40
2019-04-21T04:01:00.573Z,7.30
2019-04-21T04:06:28.761Z,7.10
2019-04-21T04:09:18.564Z,7.00
2019-04-21T04:11:44.186Z,7.10
2019-04-21T04:14:35.551Z,7.00
2019-04-21T04:16:59.109Z,7.00
2019-04-21T04:19:33.072Z,7.00
2019-04-21T04:22:20.867Z,6.90
2019-04-21T04:24:22.361Z,6.90
2019-04-21T04:26:45.591Z,6.90
2019-04-21T04:29:20.020Z,6.90
2019-04-21T04:31:55.397Z,7.00
2019-04-21T04:34:23.814Z,7.00
2019-04-21T04:42:27.170Z,7.20
2019-04-21T04:47:16.713Z,7.30
2019-04-21T04:54:55.465Z,7.50
2019-04-21T05:00:00.510Z,7.50
2019-04-21T05:02:27.806Z,7.50
2019-04-21T05:08:39.578Z,7.50
2019-04-21T05:09:57.555Z,7.50
2019-04-21T05:12:22.788Z,7.50
2019-04-21T05:17:31.177Z,7.70
2019-04-21T05:20:10.376Z,7.80
2019-04-21T05:22:21.960Z,7.90
2019-04-21T05:24:46.581Z,7.90
2019-04-21T05:27:47.047Z,7.90
2019-04-21T05:30:58.374Z,8.30
2019-04-21T05:33:34.567Z,8.50
2019-04-21T05:36:07.675Z,8.80
2019-04-21T05:38:41.835Z,9.00
2019-04-21T05:41:07.716Z,9.20
2019-04-21T05:43:48.142Z,9.50
2019-04-21T05:46:23.104Z,9.70
2019-04-21T05:49:00.813Z,10.20
2019-04-21T05:51:25.840Z,10.80
2019-04-21T05:54:06.949Z,11.00
2019-04-21T05:56:36.629Z,11.30
2019-04-21T05:59:02.361Z,11.70
2019-04-21T06:04:07.514Z,11.90
2019-04-21T06:06:43.603Z,12.20
2019-04-21T06:09:13.135Z,12.40
2019-04-21T06:11:36.250Z,12.70
2019-04-21T06:14:08.375Z,12.80
2019-04-21T06:16:45.059Z,12.80
2019-04-21T06:19:14.519Z,13.10
2019-04-21T06:21:39.107Z,13.50
2019-04-21T06:24:13.061Z,13.50
2019-04-21T06:26:54.977Z,13.70
2019-04-21T06:29:22.365Z,13.90
2019-04-21T06:32:12.711Z,14.40
2019-04-21T06:34:18.633Z,15.00
2019-04-21T06:37:17.015Z,15.20
2019-04-21T06:39:40.266Z,15.50
2019-04-21T06:42:02.540Z,15.90
2019-04-21T06:44:46.857Z,16.30
2019-04-21T06:47:06.375Z,16.60
2019-04-21T06:49:41.217Z,16.80
2019-04-21T06:52:18.037Z,17.10
2019-04-21T06:54:45.383Z,17.80
2019-04-21T06:57:08.695Z,18.30
2019-04-21T06:59:40.573Z,18.30
2019-04-21T07:04:46.930Z,19.20
2019-04-21T07:07:13.660Z,19.30
2019-04-21T07:09:45.416Z,19.50
2019-04-21T07:12:12.575Z,19.50
2019-04-21T07:14:44.760Z,19.10
2019-04-21T07:17:20.302Z,19.10
2019-04-21T07:19:48.390Z,19.20
2019-04-21T07:22:22.919Z,19.00
2019-04-21T07:24:51.998Z,19.00
2019-04-21T07:27:25.899Z,19.20
2019-04-21T07:29:55.609Z,19.20
2019-04-21T07:32:22.301Z,19.60
2019-04-21T07:34:58.898Z,19.60
2019-04-21T07:37:26.782Z,19.60
2019-04-21T07:39:53.137Z,19.30
2019-04-21T07:42:17.438Z,19.40
2019-04-21T07:44:49.456Z,19.50
2019-04-21T07:47:27.107Z,19.70
2019-04-21T07:50:14.941Z,19.80
2019-04-21T07:52:53.597Z,19.90
2019-04-21T07:57:47.480Z,20.30
2019-04-21T08:00:29.604Z,20.60
2019-04-21T08:02:54.238Z,20.30
2019-04-21T08:05:26.390Z,20.50
2019-04-21T08:08:05.199Z,20.60
2019-04-21T08:10:27.317Z,20.90
2019-04-21T08:12:54.343Z,21.20
2019-04-21T08:15:38.346Z,20.80
2019-04-21T08:18:04.744Z,20.50
2019-04-21T08:20:28.876Z,20.50
2019-04-21T08:22:58.984Z,20.50
2019-04-21T08:25:52.961Z,20.60
2019-04-21T08:27:59.827Z,20.60
2019-04-21T08:30:32.138Z,20.80
2019-04-21T08:33:14.371Z,21.00
2019-04-21T08:38:04.996Z,21.30
2019-04-21T08:40:39.306Z,21.30
2019-04-21T08:43:02.800Z,21.20
2019-04-21T08:48:04.654Z,21.50
2019-04-21T08:50:36.346Z,21.60
2019-04-21T08:53:19.438Z,21.30
2019-04-21T08:59:00.753Z,21.70
2019-04-21T09:01:36.886Z,21.60
2019-04-21T09:04:13.380Z,21.40
2019-04-21T09:11:46.152Z,21.80
2019-04-21T09:14:13.133Z,22.10
2019-04-21T09:16:44.353Z,22.30
2019-04-21T09:19:24.373Z,22.40
2019-04-21T09:21:50.477Z,22.30
2019-04-21T09:24:16.150Z,22.60
2019-04-21T09:26:48.093Z,23.00
2019-04-21T09:29:13.984Z,22.90
2019-04-21T09:31:36.590Z,23.00
2019-04-21T09:34:03.171Z,23.50
2019-04-21T09:36:38.908Z,23.80
2019-04-21T09:39:10.241Z,23.40
2019-04-21T09:41:36.414Z,23.30
2019-04-21T09:44:08.729Z,23.40
2019-04-21T09:46:44.420Z,23.30
2019-04-21T09:49:12.502Z,23.40
2019-04-21T09:51:39.618Z,23.20
2019-04-21T09:54:14.345Z,23.10
2019-04-21T09:56:47.307Z,23.30
2019-04-21T09:59:19.303Z,23.30
2019-04-21T10:01:54.970Z,23.10
2019-04-21T10:04:12.013Z,23.20
2019-04-21T10:06:41.097Z,23.30
2019-04-21T10:09:14.411Z,23.30
2019-04-21T10:11:41.712Z,23.40
2019-04-21T10:14:11.777Z,23.60
2019-04-21T10:17:13.062Z,23.60
2019-04-21T10:19:42.402Z,23.60
2019-04-21T10:22:12.621Z,23.30
2019-04-21T10:24:42.498Z,23.20
2019-04-21T10:27:13.266Z,23.30
2019-04-21T10:29:44.566Z,23.30
2019-04-21T10:32:13.385Z,23.20
2019-04-21T10:34:43.275Z,23.50
2019-04-21T10:37:13.330Z,23.40
2019-04-21T10:39:42.233Z,23.40
2019-04-21T10:42:11.365Z,22.90
2019-04-21T10:44:41.006Z,22.90
2019-04-21T10:47:10.958Z,23.10
2019-04-21T10:49:40.345Z,23.20
2019-04-21T10:52:17.120Z,23.40
2019-04-21T10:55:08.332Z,23.30
2019-04-21T10:57:24.228Z,23.50
2019-04-21T10:59:55.898Z,23.80
2019-04-21T11:02:49.069Z,23.70
2019-04-21T11:05:18.815Z,23.70
2019-04-21T11:08:07.736Z,23.80
2019-04-21T11:10:23.982Z,23.30
2019-04-21T11:12:52.906Z,23.00
2019-04-21T11:15:23.183Z,23.30
2019-04-21T11:17:52.510Z,23.60
2019-04-21T11:20:22.825Z,23.70
2019-04-21T11:22:53.521Z,23.20
2019-04-21T11:25:24.157Z,23.30
2019-04-21T11:27:53.447Z,23.40
2019-04-21T11:30:23.373Z,23.50
2019-04-21T11:32:53.119Z,23.40
2019-04-21T11:35:23.374Z,23.20
2019-04-21T11:37:52.165Z,23.20
2019-04-21T11:40:21.364Z,23.30
2019-04-21T11:42:48.810Z,23.30
2019-04-21T11:45:30.606Z,23.40
2019-04-21T11:48:16.675Z,23.70
2019-04-21T11:50:44.160Z,23.80
2019-04-21T11:53:12.640Z,23.50
2019-04-21T11:55:44.213Z,23.70
2019-04-21T11:58:09.930Z,23.50
2019-04-21T12:00:37.730Z,23.40
2019-04-21T12:03:05.790Z,23.60
2019-04-21T12:05:33.141Z,23.30
2019-04-21T12:08:00.244Z,23.10
2019-04-21T12:10:27.555Z,23.10
2019-04-21T12:12:55.191Z,23.30
2019-04-21T12:15:22.934Z,23.60
2019-04-21T12:17:50.321Z,23.50
2019-04-21T12:20:20.913Z,23.20
2019-04-21T12:22:49.436Z,23.10
2019-04-21T12:25:18.826Z,22.60
2019-04-21T12:27:47.600Z,22.50
2019-04-21T12:30:15.679Z,22.70
2019-04-21T12:32:53.914Z,22.90
2019-04-21T12:35:21.851Z,23.20
2019-04-21T12:37:49.243Z,23.40
2019-04-21T12:40:16.899Z,24.10
2019-04-21T12:42:45.401Z,23.90
2019-04-21T12:45:13.108Z,24.00
2019-04-21T12:47:41.805Z,24.50
2019-04-21T12:50:10.782Z,25.10
2019-04-21T12:52:38.142Z,25.20
2019-04-21T12:55:05.804Z,25.30
2019-04-21T12:57:33.334Z,24.70
2019-04-21T13:00:00.707Z,24.40
2019-04-21T13:02:28.087Z,24.80
2019-04-21T13:04:57.793Z,25.20
2019-04-21T13:07:28.329Z,25.50
2019-04-21T13:09:55.435Z,26.30
2019-04-21T13:12:22.857Z,26.50
2019-04-21T13:14:51.560Z,26.50
2019-04-21T13:17:19.484Z,26.70
2019-04-21T13:19:47.303Z,26.20
2019-04-21T13:22:14.433Z,26.50
2019-04-21T13:24:42.126Z,27.10
2019-04-21T13:27:10.896Z,27.40
2019-04-21T13:29:38.637Z,27.00
2019-04-21T13:32:07.378Z,27.50
2019-04-21T13:34:35.897Z,27.50
2019-04-21T13:37:03.597Z,28.00
2019-04-21T13:40:21.138Z,28.20
2019-04-21T13:42:36.314Z,27.50
2019-04-21T13:44:59.231Z,28.00
2019-04-21T13:47:26.609Z,27.90
2019-04-21T13:49:57.386Z,27.10
2019-04-21T13:52:24.642Z,26.80
2019-04-21T13:54:53.678Z,27.20
2019-04-21T13:57:21.098Z,27.70
2019-04-21T13:59:49.548Z,27.60
2019-04-21T14:02:18.531Z,28.60
2019-04-21T14:04:47.297Z,28.20
2019-04-21T14:07:14.667Z,28.10
2019-04-21T14:09:49.963Z,27.20
2019-04-21T14:12:11.760Z,27.40
2019-04-21T14:14:39.113Z,27.90
2019-04-21T14:17:07.117Z,27.30
2019-04-21T14:19:35.135Z,27.50
2019-04-21T14:22:05.305Z,27.80
2019-04-21T14:24:37.136Z,28.90
2019-04-21T14:27:05.998Z,29.80
2019-04-21T14:29:35.496Z,29.70
2019-04-21T14:32:04.255Z,29.80
2019-04-21T14:34:32.150Z,29.30
2019-04-21T14:37:02.558Z,29.10
2019-04-21T14:39:30.450Z,29.20
2019-04-21T14:41:58.159Z,29.30
2019-04-21T14:44:26.995Z,30.10
2019-04-21T14:47:13.860Z,30.70
2019-04-21T14:50:00.806Z,30.20
2019-04-21T14:52:32.902Z,29.90
2019-04-21T14:55:14.423Z,30.00
2019-04-21T14:57:43.141Z,30.60
2019-04-21T15:00:11.164Z,31.60
2019-04-21T15:02:38.421Z,31.50
2019-04-21T15:05:07.199Z,31.10
2019-04-21T15:07:35.185Z,31.10
2019-04-21T15:10:11.759Z,29.60
2019-04-21T15:12:32.074Z,28.20
2019-04-21T15:15:00.177Z,28.40
2019-04-21T15:17:29.315Z,28.70
2019-04-21T15:20:04.051Z,28.40
2019-04-21T15:22:26.252Z,28.50
2019-04-21T15:24:58.397Z,28.70
2019-04-21T15:27:27.370Z,28.70
2019-04-21T15:29:54.886Z,29.00
2019-04-21T15:32:22.361Z,28.50
2019-04-21T15:34:49.938Z,28.20
2019-04-21T15:37:19.985Z,27.90
2019-04-21T15:39:47.026Z,28.90
2019-04-21T15:42:14.599Z,29.90
2019-04-21T15:44:42.844Z,30.40
2019-04-21T15:47:10.441Z,29.80
2019-04-21T15:50:02.807Z,30.00
2019-04-21T15:52:25.532Z,29.80
2019-04-21T15:54:56.885Z,28.80
2019-04-21T15:57:37.727Z,29.10
2019-04-21T16:00:20.690Z,29.80
2019-04-21T16:02:48.589Z,29.60
2019-04-21T16:05:16.917Z,28.60
2019-04-21T16:07:44.499Z,29.00
2019-04-21T16:10:17.410Z,29.10
2019-04-21T16:12:41.056Z,28.40
2019-04-21T16:15:08.521Z,28.60
2019-04-21T16:17:37.296Z,28.30
2019-04-21T16:20:07.900Z,27.20
2019-04-21T16:22:36.723Z,27.80
2019-04-21T16:25:05.173Z,28.00
2019-04-21T16:27:33.196Z,27.70
2019-04-21T16:30:01.826Z,28.00
2019-04-21T16:32:30.178Z,28.90
2019-04-21T16:35:03.267Z,28.70
2019-04-21T16:37:27.689Z,28.80
2019-04-21T16:39:55.711Z,28.70
2019-04-21T16:42:24.399Z,28.40
2019-04-21T16:44:52.769Z,28.00
2019-04-21T16:47:21.413Z,28.70
2019-04-21T16:49:49.843Z,29.80
2019-04-21T16:52:23.968Z,28.60
2019-04-21T16:55:00.229Z,28.30
2019-04-21T16:58:00.670Z,28.10
2019-04-21T17:00:31.742Z,27.90
2019-04-21T17:02:54.714Z,28.00
2019-04-21T17:05:22.398Z,27.30
2019-04-21T17:07:52.686Z,27.10
2019-04-21T17:10:18.669Z,27.10
2019-04-21T17:12:47.468Z,26.70
2019-04-21T17:15:32.385Z,25.10
2019-04-21T17:18:05.928Z,23.60
2019-04-21T17:20:25.941Z,22.80
2019-04-21T17:22:43.621Z,22.30
2019-04-21T17:25:11.023Z,21.90
2019-04-21T17:27:39.005Z,21.80
2019-04-21T17:30:06.796Z,21.70
2019-04-21T17:32:38.790Z,21.60
2019-04-21T17:35:03.982Z,21.50
2019-04-21T17:37:32.432Z,21.40
2019-04-21T17:40:03.219Z,21.20
2019-04-21T17:42:36.291Z,21.00
2019-04-21T17:44:59.280Z,20.90
2019-04-21T17:47:39.415Z,20.80
2019-04-21T17:50:15.613Z,20.70
2019-04-21T17:52:55.567Z,20.50
2019-04-21T17:55:27.518Z,20.60
2019-04-21T17:58:03.497Z,20.40
2019-04-21T18:01:03.602Z,20.20
2019-04-21T18:03:22.769Z,20.10
2019-04-21T18:05:39.173Z,20.00
2019-04-21T18:08:11.043Z,19.90
2019-04-21T18:10:33.948Z,19.90
2019-04-21T18:12:57.282Z,19.80
2019-04-21T18:15:29.022Z,19.70
2019-04-21T18:17:45.024Z,19.60
2019-04-21T18:20:15.125Z,19.50
2019-04-21T18:22:52.967Z,19.40
2019-04-21T18:25:32.001Z,19.20
2019-04-21T18:27:50.509Z,19.00
2019-04-21T18:30:56.536Z,18.90
2019-04-21T18:33:31.326Z,18.80
2019-04-21T18:36:22.306Z,18.90
2019-04-21T18:39:10.365Z,18.90
2019-04-21T18:41:23.965Z,18.50
2019-04-21T18:44:23.613Z,18.40
2019-04-21T18:47:12.192Z,18.30
2019-04-21T18:49:24.877Z,18.40
2019-04-21T18:52:03.999Z,18.20
2019-04-21T18:54:47.171Z,18.00
2019-04-21T18:57:08.172Z,17.90
2019-04-21T18:59:33.718Z,17.50
2019-04-21T19:02:02.092Z,17.10
2019-04-21T19:04:29.180Z,16.90
2019-04-21T19:07:06.641Z,16.50
2019-04-21T19:10:00.751Z,16.20
2019-04-21T19:12:11.714Z,16.10
2019-04-21T19:14:40.100Z,15.90
2019-04-21T19:17:38.171Z,15.90
2019-04-21T19:19:44.207Z,15.90
2019-04-21T19:22:19.860Z,15.90
2019-04-21T19:24:41.265Z,15.80
2019-04-21T19:29:48.775Z,15.60
2019-04-21T19:32:11.386Z,15.60
2019-04-21T19:34:22.395Z,15.40
2019-04-21T19:36:51.186Z,15.20
2019-04-21T19:39:23.294Z,15.00
2019-04-21T19:41:57.567Z,14.90
2019-04-21T19:44:26.148Z,14.80
2019-04-21T19:46:58.368Z,14.60
2019-04-21T19:49:32.394Z,14.50
2019-04-21T19:51:50.833Z,14.30
2019-04-21T19:54:20.216Z,14.80
2019-04-21T19:56:38.525Z,14.00
2019-04-21T19:59:06.955Z,13.80
2019-04-21T20:01:35.206Z,13.80
2019-04-21T20:04:02.841Z,13.80
2019-04-21T20:06:45.400Z,13.60
2019-04-21T20:09:19.124Z,13.50
2019-04-21T20:11:47.375Z,13.30
2019-04-21T20:16:45.532Z,13.30
2019-04-21T20:19:01.370Z,16.50
2019-04-21T20:21:26.831Z,13.10
2019-04-21T20:23:57.507Z,12.80
2019-04-21T20:26:30.426Z,12.80
2019-04-21T20:29:04.569Z,12.70
2019-04-21T20:31:36.731Z,12.60
2019-04-21T20:34:11.514Z,12.40
2019-04-21T20:36:45.341Z,12.30
2019-04-21T20:38:58.034Z,12.30
2019-04-21T20:41:32.239Z,12.20
2019-04-21T20:44:07.284Z,12.20
2019-04-21T20:46:33.734Z,12.00
2019-04-21T20:49:00.160Z,12.00
2019-04-21T20:51:32.745Z,12.00
2019-04-21T20:53:59.145Z,11.90
2019-04-21T20:56:26.923Z,11.90
2019-04-21T20:59:04.503Z,11.80
2019-04-21T21:01:35.853Z,11.70
2019-04-21T21:03:51.808Z,11.60
2019-04-21T21:06:26.351Z,11.50
2019-04-21T21:08:56.908Z,11.60
2019-04-21T21:11:26.420Z,11.50
2019-04-21T21:13:58.743Z,11.40
2019-04-21T21:16:30.889Z,11.50
2019-04-21T21:19:03.710Z,11.60
2019-04-21T21:21:20.968Z,11.60
2019-04-21T21:23:54.689Z,11.70
2019-04-21T21:26:28.281Z,11.80
2019-04-21T21:28:42.994Z,11.80
2019-04-21T21:31:20.977Z,11.80
2019-04-21T21:34:00.258Z,11.80
2019-04-21T21:36:21.277Z,11.70
2019-04-21T21:38:54.570Z,12.40
2019-04-21T21:41:15.624Z,11.60
2019-04-21T21:43:33.110Z,11.60
2019-04-21T21:46:11.175Z,11.60
2019-04-21T21:48:47.485Z,11.60
2019-04-21T21:51:08.217Z,11.50
2019-04-21T21:53:33.782Z,11.60
2019-04-21T21:55:58.511Z,11.80
2019-04-21T21:58:31.662Z,11.40
2019-04-21T22:00:58.950Z,11.40
2019-04-21T22:03:30.880Z,11.30
2019-04-21T22:06:02.155Z,11.30
2019-04-21T22:08:22.654Z,11.10
2019-04-21T22:10:49.926Z,10.80
2019-04-21T22:13:20.318Z,10.90
2019-04-21T22:15:50.573Z,10.90
2019-04-21T22:18:37.852Z,10.90
2019-04-21T22:21:02.267Z,10.90
2019-04-21T22:23:26.260Z,11.00
2019-04-21T22:25:44.319Z,11.10
2019-04-21T22:28:13.811Z,11.10
2019-04-21T22:30:46.442Z,11.10
2019-04-21T22:33:14.146Z,10.80
2019-04-21T22:35:46.346Z,10.80
2019-04-21T22:38:25.684Z,10.50
2019-04-21T22:40:54.764Z,10.20
2019-04-21T22:43:19.786Z,10.00
2019-04-21T22:45:37.719Z,9.80
2019-04-21T22:48:12.406Z,9.60
2019-04-21T22:50:34.966Z,9.60
2019-04-21T22:53:07.171Z,9.50
2019-04-21T22:55:35.007Z,9.30
2019-04-21T22:58:02.038Z,9.20
2019-04-21T23:00:37.767Z,9.00
2019-04-21T23:03:05.543Z,8.90
2019-04-21T23:05:34.363Z,8.80
2019-04-21T23:08:06.897Z,8.70
2019-04-21T23:10:32.775Z,8.60
2019-04-21T23:13:07.091Z,8.50
2019-04-21T23:15:40.646Z,8.50
2019-04-21T23:18:11.971Z,8.50
2019-04-21T23:20:52.067Z,8.40
2019-04-21T23:23:17.912Z,8.40
2019-04-21T23:25:41.699Z,8.40
2019-04-21T23:28:10.199Z,8.40
2019-04-21T23:30:49.993Z,8.70
2019-04-21T23:33:02.382Z,8.40
2019-04-21T23:35:32.214Z,8.50
2019-04-21T23:37:57.703Z,9.30
2019-04-21T23:40:23.712Z,8.50
2019-04-21T23:42:51.242Z,8.40
2019-04-21T23:45:25.280Z,8.40
2019-04-21T23:48:01.926Z,8.30
2019-04-21T23:50:25.368Z,8.20
2019-04-21T23:52:46.030Z,8.10
2019-04-21T23:55:13.511Z,8.10
2019-04-21T23:57:46.246Z,8.10
